createdAt,value
2018-01-15T00:01:30.074Z,11.70
2018-01-15T00:03:58.553Z,13.67
2018-01-15T00:06:26.842Z,12.50
2018-01-15T00:08:55.521Z,12.10
2018-01-15T00:11:24.490Z,12.17
2018-01-15T00:13:52.750Z,12.30
2018-01-15T00:16:21.040Z,13.87
2018-01-15T00:18:49.347Z,15.73
2018-01-15T00:21:18.019Z,14.03
2018-01-15T00:23:46.295Z,13.80
2018-01-15T00:26:14.596Z,15.37
2018-01-15T00:28:43.639Z,13.07
2018-01-15T00:31:11.938Z,13.30
2018-01-15T00:33:40.206Z,12.43
2018-01-15T00:36:08.494Z,13.20
2018-01-15T00:38:37.062Z,14.37
2018-01-15T00:41:05.382Z,12.67
2018-01-15T00:43:34.074Z,12.33
2018-01-15T00:46:02.405Z,12.87
2018-01-15T00:48:30.991Z,11.30
2018-01-15T00:50:59.283Z,12.37
2018-01-15T00:53:27.980Z,12.50
2018-01-15T00:55:56.681Z,13.50
2018-01-15T00:58:25.002Z,13.70
2018-01-15T01:00:53.290Z,15.00
2018-01-15T01:03:21.554Z,13.70
2018-01-15T01:05:49.866Z,15.07
2018-01-15T01:08:18.843Z,15.07
2018-01-15T01:10:47.110Z,12.23
2018-01-15T01:13:15.381Z,14.57
2018-01-15T01:15:43.674Z,16.37
2018-01-15T01:18:11.944Z,13.97
2018-01-15T01:20:40.303Z,14.40
2018-01-15T01:23:08.902Z,14.87
2018-01-15T01:25:37.482Z,12.37
2018-01-15T01:28:06.071Z,15.20
2018-01-15T01:30:34.358Z,13.10
2018-01-15T01:33:02.705Z,12.63
2018-01-15T01:35:30.998Z,12.57
2018-01-15T01:37:59.267Z,14.13
2018-01-15T01:40:27.543Z,13.90
2018-01-15T01:42:55.810Z,15.77
2018-01-15T01:45:24.110Z,14.90
2018-01-15T01:47:52.395Z,11.93
2018-01-15T01:50:20.958Z,15.50
2018-01-15T01:52:49.450Z,12.37
2018-01-15T01:55:18.029Z,12.30
2018-01-15T01:57:46.312Z,11.93
2018-01-15T02:00:14.883Z,12.50
2018-01-15T02:02:43.190Z,15.37
2018-01-15T02:05:11.861Z,16.20
2018-01-15T02:07:40.162Z,15.00
2018-01-15T02:10:08.447Z,12.73
2018-01-15T02:12:36.718Z,15.20
2018-01-15T02:15:05.358Z,12.77
2018-01-15T02:17:33.641Z,13.83
2018-01-15T02:20:01.910Z,14.00
2018-01-15T02:22:30.326Z,15.80
2018-01-15T02:24:59.282Z,13.40
2018-01-15T02:27:27.563Z,15.77
2018-01-15T02:29:55.840Z,15.67
2018-01-15T02:32:24.417Z,13.97
2018-01-15T02:34:53.054Z,15.47
2018-01-15T02:37:21.393Z,14.53
2018-01-15T02:39:49.686Z,14.83
2018-01-15T02:42:18.346Z,14.97
2018-01-15T02:44:46.665Z,13.10
2018-01-15T02:47:14.970Z,14.57
2018-01-15T02:49:43.582Z,14.93
2018-01-15T02:52:12.077Z,15.57
2018-01-15T02:54:40.809Z,16.03
2018-01-15T02:57:09.078Z,14.80
2018-01-15T02:59:37.342Z,14.80
2018-01-15T03:02:05.668Z,15.03
2018-01-15T03:04:33.943Z,17.07
2018-01-15T03:07:02.230Z,15.43
2018-01-15T03:09:30.567Z,14.73
2018-01-15T03:11:58.838Z,14.83
2018-01-15T03:14:27.139Z,16.47
2018-01-15T03:16:55.538Z,15.70
2018-01-15T03:19:23.810Z,16.50
2018-01-15T03:21:52.094Z,15.10
2018-01-15T03:24:20.371Z,16.17
2018-01-15T03:26:48.761Z,16.13
2018-01-15T03:29:17.438Z,14.30
2018-01-15T03:31:46.011Z,15.80
2018-01-15T03:34:14.279Z,15.77
2018-01-15T03:36:42.594Z,14.83
2018-01-15T03:39:11.281Z,13.83
2018-01-15T03:41:39.968Z,15.17
2018-01-15T03:44:08.658Z,13.80
2018-01-15T03:46:37.614Z,15.20
2018-01-15T03:49:05.927Z,15.43
2018-01-15T03:51:34.618Z,15.73
2018-01-15T03:54:02.937Z,15.27
2018-01-15T03:56:31.244Z,16.50
2018-01-15T03:58:59.532Z,16.63
2018-01-15T04:01:28.261Z,15.80
2018-01-15T04:03:56.775Z,15.13
2018-01-15T04:06:25.046Z,18.07
2018-01-15T04:08:53.352Z,13.83
2018-01-15T04:11:21.614Z,14.40
2018-01-15T04:13:49.891Z,17.13
2018-01-15T04:16:18.463Z,16.50
2018-01-15T04:18:47.049Z,14.70
2018-01-15T04:21:15.454Z,17.60
2018-01-15T04:23:44.118Z,16.90
2018-01-15T04:26:12.378Z,15.47
2018-01-15T04:28:40.703Z,15.47
2018-01-15T04:31:08.973Z,15.83
2018-01-15T04:33:37.635Z,15.90
2018-01-15T04:36:05.912Z,18.00
2018-01-15T04:38:34.214Z,17.23
2018-01-15T04:41:02.694Z,15.40
2018-01-15T04:43:32.062Z,16.97
2018-01-15T04:46:00.342Z,15.47
2018-01-15T04:48:28.638Z,16.60
2018-01-15T04:50:57.360Z,16.47
2018-01-15T04:53:25.667Z,16.70
2018-01-15T04:55:53.966Z,16.90
2018-01-15T04:58:22.290Z,16.47
2018-01-15T05:00:50.581Z,15.00
2018-01-15T05:03:18.858Z,18.87
2018-01-15T05:05:47.158Z,16.33
2018-01-15T05:08:15.450Z,16.10
2018-01-15T05:10:43.745Z,16.10
2018-01-15T05:13:12.034Z,19.70
2018-01-15T05:15:40.345Z,16.90
2018-01-15T05:18:08.949Z,18.00
2018-01-15T05:20:37.661Z,17.67
2018-01-15T05:23:05.947Z,16.67
2018-01-15T05:25:34.266Z,15.83
2018-01-15T05:28:02.557Z,17.10
2018-01-15T05:30:30.876Z,16.30
2018-01-15T05:32:59.236Z,16.03
2018-01-15T05:35:27.523Z,17.47
2018-01-15T05:37:56.214Z,16.30
2018-01-15T05:40:24.938Z,17.80
2018-01-15T05:42:53.228Z,16.67
2018-01-15T05:45:21.512Z,17.63
2018-01-15T05:47:49.834Z,16.83
2018-01-15T05:50:18.130Z,18.70
2018-01-15T05:52:46.450Z,16.77
2018-01-15T05:55:14.769Z,17.80
2018-01-15T05:57:43.293Z,15.03
2018-01-15T06:00:12.102Z,18.60
2018-01-15T06:02:40.849Z,16.93
2018-01-15T06:05:09.139Z,17.77
2018-01-15T06:07:37.432Z,16.53
2018-01-15T06:10:05.746Z,16.90
2018-01-15T06:12:34.713Z,21.80
2018-01-15T06:15:02.984Z,16.43
2018-01-15T06:17:31.323Z,19.97
2018-01-15T06:19:59.613Z,18.77
2018-01-15T06:22:28.000Z,17.13
2018-01-15T06:24:56.284Z,17.50
2018-01-15T06:27:24.575Z,17.30
2018-01-15T06:29:52.871Z,15.67
2018-01-15T06:32:21.554Z,17.03
2018-01-15T06:34:50.246Z,16.60
2018-01-15T06:37:18.570Z,18.23
2018-01-15T06:39:46.956Z,17.07
2018-01-15T06:42:15.238Z,19.77
2018-01-15T06:44:43.565Z,19.73
2018-01-15T06:47:11.858Z,18.40
2018-01-15T06:49:40.209Z,17.03
2018-01-15T06:52:09.874Z,18.23
2018-01-15T06:54:38.474Z,21.53
2018-01-15T06:57:06.786Z,18.47
2018-01-15T06:59:35.082Z,18.10
2018-01-15T07:02:03.388Z,17.97
2018-01-15T07:04:31.722Z,17.90
2018-01-15T07:07:00.045Z,18.40
2018-01-15T07:09:28.423Z,18.43
2018-01-15T07:11:56.750Z,19.30
2018-01-15T07:14:25.047Z,20.57
2018-01-15T07:16:53.335Z,19.13
2018-01-15T07:19:21.655Z,19.37
2018-01-15T07:21:49.926Z,20.77
2018-01-15T07:24:18.213Z,19.90
2018-01-15T07:26:46.510Z,19.80
2018-01-15T07:29:15.216Z,18.83
2018-01-15T07:31:43.514Z,19.97
2018-01-15T07:34:11.862Z,19.57
2018-01-15T07:36:40.192Z,19.30
2018-01-15T07:39:08.505Z,20.23
2018-01-15T07:41:36.823Z,19.80
2018-01-15T07:44:05.174Z,19.67
2018-01-15T07:46:33.477Z,21.87
2018-01-15T07:49:01.751Z,19.60
2018-01-15T07:51:30.360Z,21.00
2018-01-15T07:53:58.651Z,19.17
2018-01-15T07:56:27.013Z,18.90
2018-01-15T07:58:55.350Z,19.00
2018-01-15T08:01:23.664Z,22.83
2018-01-15T08:03:51.978Z,20.17
2018-01-15T08:06:20.363Z,19.10
2018-01-15T08:08:48.679Z,21.07
2018-01-15T08:11:16.979Z,19.70
2018-01-15T08:13:45.316Z,20.13
2018-01-15T08:16:13.614Z,20.23
2018-01-15T08:18:41.908Z,19.50
2018-01-15T08:21:11.816Z,20.30
2018-01-15T08:23:40.510Z,21.67
2018-01-15T08:26:08.918Z,21.13
2018-01-15T08:28:37.226Z,19.00
2018-01-15T08:31:05.545Z,21.47
2018-01-15T08:33:33.854Z,19.10
2018-01-15T08:36:02.126Z,20.90
2018-01-15T08:38:30.455Z,19.40
2018-01-15T08:40:58.819Z,22.63
2018-01-15T08:43:27.114Z,21.40
2018-01-15T08:45:55.487Z,19.73
2018-01-15T08:48:23.802Z,22.73
2018-01-15T08:50:52.481Z,22.23
2018-01-15T08:53:21.166Z,21.67
2018-01-15T08:55:50.162Z,24.17
2018-01-15T08:58:18.878Z,19.93
2018-01-15T09:00:47.201Z,21.77
2018-01-15T09:03:15.580Z,20.07
2018-01-15T09:05:43.881Z,21.43
2018-01-15T09:08:12.592Z,19.70
2018-01-15T09:10:40.881Z,19.40
2018-01-15T09:13:09.190Z,24.83
2018-01-15T09:15:37.486Z,19.43
2018-01-15T09:18:05.761Z,21.50
2018-01-15T09:20:34.102Z,17.80
2018-01-15T09:23:02.388Z,20.50
2018-01-15T09:25:30.663Z,19.17
2018-01-15T09:27:58.998Z,21.67
2018-01-15T09:30:27.306Z,18.73
2018-01-15T09:32:55.702Z,17.97
2018-01-15T09:35:24.098Z,15.80
2018-01-15T09:37:52.616Z,16.60
2018-01-15T09:40:20.910Z,17.40
2018-01-15T09:42:49.226Z,16.40
2018-01-15T09:45:17.866Z,15.40
2018-01-15T09:47:46.214Z,16.27
2018-01-15T09:50:14.955Z,18.20
2018-01-15T09:52:43.230Z,14.03
2018-01-15T09:55:11.538Z,14.30
2018-01-15T09:57:39.854Z,15.60
2018-01-15T10:00:08.769Z,15.70
2018-01-15T10:02:38.880Z,14.83
2018-01-15T10:05:07.590Z,13.63
2018-01-15T10:07:35.929Z,14.90
2018-01-15T10:10:05.718Z,14.10
2018-01-15T10:12:34.015Z,14.20
2018-01-15T10:15:02.327Z,12.57
2018-01-15T10:17:30.647Z,13.23
2018-01-15T10:19:59.552Z,12.60
2018-01-15T10:22:28.285Z,14.20
2018-01-15T10:24:56.671Z,14.30
2018-01-15T10:27:24.966Z,11.90
2018-01-15T10:29:53.540Z,41.70
2018-01-15T10:32:21.860Z,57.30
2018-01-15T10:34:50.167Z,64.53
2018-01-15T10:37:18.511Z,81.27
2018-01-15T10:39:46.816Z,72.47
2018-01-15T10:42:15.092Z,76.43
2018-01-15T10:44:43.487Z,64.17
2018-01-15T10:47:11.778Z,53.80
2018-01-15T10:49:40.060Z,57.20
2018-01-15T10:52:08.395Z,46.70
2018-01-15T10:54:37.615Z,45.57
2018-01-15T10:57:05.931Z,46.77
2018-01-15T10:59:34.638Z,43.07
2018-01-15T11:02:03.177Z,40.80
2018-01-15T11:04:31.485Z,39.40
2018-01-15T11:07:00.224Z,38.73
2018-01-15T11:09:28.850Z,27.17
2018-01-15T11:11:57.539Z,28.10
2018-01-15T11:14:26.258Z,28.83
2018-01-15T11:16:54.559Z,23.03
2018-01-15T11:19:22.861Z,23.30
2018-01-15T11:21:51.183Z,23.07
2018-01-15T11:24:19.482Z,21.63
2018-01-15T11:26:47.900Z,20.67
2018-01-15T11:29:16.225Z,22.57
2018-01-15T11:31:44.527Z,22.53
2018-01-15T11:34:12.826Z,20.63
2018-01-15T11:36:41.132Z,18.40
2018-01-15T11:39:09.409Z,17.50
2018-01-15T11:41:37.727Z,19.23
2018-01-15T11:44:06.050Z,15.57
2018-01-15T11:46:34.741Z,16.10
2018-01-15T11:49:03.045Z,16.20
2018-01-15T11:51:31.358Z,14.43
2018-01-15T11:53:59.946Z,12.63
2018-01-15T11:56:28.229Z,11.83
2018-01-15T11:58:56.502Z,11.77
2018-01-15T12:01:25.390Z,12.63
2018-01-15T12:03:53.670Z,11.40
2018-01-15T12:06:22.024Z,12.97
2018-01-15T12:08:50.755Z,10.60
2018-01-15T12:11:19.085Z,12.13
2018-01-15T12:13:47.370Z,13.20
2018-01-15T12:16:15.644Z,10.80
2018-01-15T12:18:43.919Z,9.80
2018-01-15T12:21:12.254Z,10.40
2018-01-15T12:23:40.535Z,9.07
2018-01-15T12:26:08.849Z,9.63
2018-01-15T12:28:37.957Z,9.13
2018-01-15T12:31:06.246Z,10.43
2018-01-15T12:33:34.535Z,9.23
2018-01-15T12:36:03.259Z,9.50
2018-01-15T12:38:31.579Z,9.33
2018-01-15T12:40:59.846Z,8.90
2018-01-15T12:43:28.648Z,9.30
2018-01-15T12:45:57.715Z,9.33
2018-01-15T12:48:25.984Z,10.33
2018-01-15T12:50:54.271Z,10.80
2018-01-15T12:53:22.535Z,9.73
2018-01-15T12:55:50.840Z,10.70
2018-01-15T12:58:19.149Z,10.50
2018-01-15T13:00:47.988Z,11.40
2018-01-15T13:03:16.368Z,12.40
2018-01-15T13:05:50.967Z,12.30
2018-01-15T13:08:31.109Z,12.70
2018-01-15T13:10:59.681Z,13.60
2018-01-15T13:13:28.372Z,13.43
2018-01-15T13:15:56.668Z,13.97
2018-01-15T13:18:24.996Z,13.63
2018-01-15T13:20:53.754Z,11.37
2018-01-15T13:23:22.050Z,12.87
2018-01-15T13:25:50.398Z,12.67
2018-01-15T13:28:18.697Z,11.70
2018-01-15T13:30:46.980Z,12.77
2018-01-15T13:33:15.341Z,11.73
2018-01-15T13:35:43.642Z,16.53
2018-01-15T13:38:12.334Z,12.77
2018-01-15T13:40:40.722Z,14.00
2018-01-15T13:43:09.399Z,12.50
2018-01-15T13:45:37.690Z,12.10
2018-01-15T13:48:06.669Z,14.03
2018-01-15T13:50:35.013Z,13.93
2018-01-15T13:53:03.391Z,16.13
2018-01-15T13:55:31.686Z,16.20
2018-01-15T13:57:59.978Z,13.17
2018-01-15T14:00:28.958Z,14.57
2018-01-15T14:02:57.248Z,14.90
2018-01-15T14:05:25.922Z,12.70
2018-01-15T14:07:54.498Z,11.90
2018-01-15T14:10:25.541Z,14.33
2018-01-15T14:12:54.123Z,12.50
2018-01-15T14:15:22.703Z,13.83
2018-01-15T14:17:50.975Z,12.47
2018-01-15T14:20:19.267Z,11.63
2018-01-15T14:22:47.951Z,14.63
2018-01-15T14:25:16.329Z,13.97
2018-01-15T14:27:44.929Z,15.37
2018-01-15T14:30:13.668Z,13.43
2018-01-15T14:32:42.000Z,13.00
2018-01-15T14:35:10.676Z,13.13
2018-01-15T14:37:39.476Z,14.00
2018-01-15T14:40:08.158Z,12.40
2018-01-15T14:42:36.850Z,13.27
2018-01-15T14:45:05.406Z,12.33
2018-01-15T14:47:33.698Z,15.47
2018-01-15T14:50:02.367Z,15.43
2018-01-15T14:52:30.677Z,12.80
2018-01-15T14:54:58.950Z,13.30
2018-01-15T14:57:27.377Z,13.53
2018-01-15T14:59:56.335Z,12.43
2018-01-15T15:02:24.611Z,13.83
2018-01-15T15:04:52.901Z,31.27
2018-01-15T15:07:21.535Z,39.50
2018-01-15T15:09:50.086Z,30.53
2018-01-15T15:12:18.378Z,29.87
2018-01-15T15:14:47.535Z,32.70
2018-01-15T15:17:15.944Z,127.50
2018-01-15T15:19:44.139Z,107.43
2018-01-15T15:22:12.869Z,92.63
2018-01-15T15:24:41.511Z,101.03
2018-01-15T15:27:10.229Z,140.97
2018-01-15T15:29:39.078Z,82.63
2018-01-15T15:32:07.658Z,76.47
2018-01-15T15:34:35.938Z,60.20
2018-01-15T15:37:04.288Z,53.43
2018-01-15T15:39:32.606Z,43.83
2018-01-15T15:42:00.929Z,39.17
2018-01-15T15:44:29.242Z,31.37
2018-01-15T15:46:57.993Z,25.20
2018-01-15T15:49:26.339Z,26.17
2018-01-15T15:51:55.306Z,21.47
2018-01-15T15:54:23.592Z,21.43
2018-01-15T15:56:51.926Z,18.50
2018-01-15T15:59:20.229Z,18.97
2018-01-15T16:01:48.549Z,16.07
2018-01-15T16:04:16.970Z,17.33
2018-01-15T16:06:45.247Z,15.50
2018-01-15T16:09:13.582Z,15.03
2018-01-15T16:11:43.189Z,13.20
2018-01-15T16:14:11.815Z,15.90
2018-01-15T16:16:40.486Z,14.63
2018-01-15T16:19:08.948Z,14.03
2018-01-15T16:21:37.698Z,14.50
2018-01-15T16:24:06.023Z,31.60
2018-01-15T16:26:34.302Z,43.40
2018-01-15T16:29:02.615Z,51.90
2018-01-15T16:31:31.475Z,39.90
2018-01-15T16:34:00.094Z,38.63
2018-01-15T16:36:29.726Z,34.50
2018-01-15T16:38:58.294Z,33.10
2018-01-15T16:41:26.753Z,27.93
2018-01-15T16:43:55.063Z,28.43
2018-01-15T16:46:24.271Z,20.67
2018-01-15T16:48:52.735Z,19.47
2018-01-15T16:51:21.407Z,17.20
2018-01-15T16:53:50.122Z,18.20
2018-01-15T16:56:18.431Z,17.17
2018-01-15T16:58:46.741Z,16.03
2018-01-15T17:01:15.134Z,15.43
2018-01-15T17:03:43.514Z,15.70
2018-01-15T17:06:11.810Z,18.03
2018-01-15T17:08:40.103Z,16.63
2018-01-15T17:11:08.746Z,17.00
2018-01-15T17:13:37.064Z,13.77
2018-01-15T17:16:05.374Z,16.10
2018-01-15T17:18:33.648Z,17.07
2018-01-15T17:21:02.061Z,15.27
2018-01-15T17:23:30.946Z,13.80
2018-01-15T17:25:59.632Z,15.13
2018-01-15T17:28:28.008Z,14.70
2018-01-15T17:30:56.326Z,16.97
2018-01-15T17:33:24.739Z,15.70
2018-01-15T17:35:53.074Z,14.83
2018-01-15T17:38:21.726Z,15.00
2018-01-15T17:40:50.031Z,16.83
2018-01-15T17:43:18.700Z,14.93
2018-01-15T17:45:47.378Z,14.77
2018-01-15T17:48:15.678Z,16.53
2018-01-15T17:50:44.237Z,15.70
2018-01-15T17:53:12.548Z,15.93
2018-01-15T17:55:40.842Z,16.83
2018-01-15T17:58:09.470Z,16.10
2018-01-15T18:00:37.774Z,16.00
2018-01-15T18:03:06.111Z,17.93
2018-01-15T18:05:34.398Z,15.43
2018-01-15T18:08:02.765Z,15.07
2018-01-15T18:10:31.231Z,15.33
2018-01-15T18:12:59.993Z,15.20
2018-01-15T18:15:29.211Z,14.90
2018-01-15T18:17:57.600Z,14.90
2018-01-15T18:20:25.901Z,16.27
2018-01-15T18:22:54.205Z,17.30
2018-01-15T18:25:22.915Z,19.23
2018-01-15T18:27:51.220Z,16.93
2018-01-15T18:30:19.536Z,15.03
2018-01-15T18:32:48.335Z,11.37
2018-01-15T18:35:16.613Z,15.33
2018-01-15T18:37:45.130Z,12.23
2018-01-15T18:40:13.476Z,10.53
2018-01-15T18:42:41.811Z,15.60
2018-01-15T18:45:10.111Z,12.93
2018-01-15T18:47:38.818Z,11.30
2018-01-15T18:50:07.126Z,11.07
2018-01-15T18:52:35.429Z,11.63
2018-01-15T18:55:03.779Z,12.30
2018-01-15T18:57:32.080Z,10.93
2018-01-15T19:00:00.806Z,10.13
2018-01-15T19:02:29.196Z,10.00
2018-01-15T19:04:57.506Z,10.80
2018-01-15T19:07:25.870Z,12.20
2018-01-15T19:09:54.177Z,16.47
2018-01-15T19:12:22.490Z,11.67
2018-01-15T19:14:50.847Z,10.40
2018-01-15T19:17:19.146Z,10.30
2018-01-15T19:19:47.488Z,11.70
2018-01-15T19:22:15.797Z,8.40
2018-01-15T19:24:44.488Z,10.50
2018-01-15T19:27:12.798Z,10.33
2018-01-15T19:29:41.095Z,11.03
2018-01-15T19:32:09.499Z,11.97
2018-01-15T19:34:44.368Z,12.60
2018-01-15T19:40:13.894Z,12.13
2018-01-15T19:42:42.391Z,12.97
2018-01-15T19:45:16.441Z,12.10
2018-01-15T19:47:50.502Z,12.63
2018-01-15T19:50:24.742Z,15.37
2018-01-15T19:52:58.750Z,14.50
2018-01-15T19:55:32.672Z,12.83
2018-01-15T19:58:07.067Z,11.60
2018-01-15T20:03:42.749Z,15.53
2018-01-15T20:06:16.618Z,12.30
2018-01-15T20:08:50.786Z,12.90
2018-01-15T20:11:19.510Z,13.40
2018-01-15T20:13:47.937Z,13.73
2018-01-15T20:16:16.538Z,13.27
2018-01-15T20:18:45.572Z,13.47
2018-01-15T20:21:13.973Z,12.07
2018-01-15T20:23:42.385Z,13.20
2018-01-15T20:26:10.693Z,13.07
2018-01-15T20:28:39.671Z,12.97
2018-01-15T20:31:08.429Z,13.00
2018-01-15T20:33:36.771Z,13.43
2018-01-15T20:36:05.069Z,13.73
2018-01-15T20:38:33.462Z,12.97
2018-01-15T20:41:01.830Z,12.87
2018-01-15T20:43:31.114Z,13.50
2018-01-15T20:45:59.458Z,14.63
2018-01-15T20:48:28.171Z,13.37
2018-01-15T20:50:56.465Z,14.13
2018-01-15T20:53:24.822Z,12.70
2018-01-15T20:55:53.237Z,12.40
2018-01-15T20:58:21.784Z,13.23
2018-01-15T21:00:50.082Z,13.17
2018-01-15T21:03:18.435Z,10.63
2018-01-15T21:05:46.717Z,12.80
2018-01-15T21:08:15.016Z,14.63
2018-01-15T21:10:43.408Z,12.37
2018-01-15T21:13:11.754Z,13.03
2018-01-15T21:15:40.096Z,10.33
2018-01-15T21:18:08.781Z,9.00
2018-01-15T21:20:37.059Z,9.13
2018-01-15T21:23:05.805Z,10.40
2018-01-15T21:25:34.083Z,10.23
2018-01-15T21:28:02.366Z,12.57
2018-01-15T21:30:30.704Z,10.93
2018-01-15T21:32:59.021Z,9.90
2018-01-15T21:35:27.302Z,9.90
2018-01-15T21:37:55.660Z,13.00
2018-01-15T21:40:23.997Z,11.37
2018-01-15T21:42:52.287Z,11.77
2018-01-15T21:45:20.591Z,10.83
2018-01-15T21:47:48.863Z,11.10
2018-01-15T21:50:17.163Z,10.80
2018-01-15T21:52:45.470Z,11.00
2018-01-15T21:55:14.139Z,11.87
2018-01-15T21:57:42.434Z,13.07
2018-01-15T22:00:11.149Z,11.60
2018-01-15T22:02:39.431Z,12.73
2018-01-15T22:05:07.999Z,12.33
2018-01-15T22:07:36.312Z,11.97
2018-01-15T22:10:04.637Z,14.37
2018-01-15T22:12:33.310Z,13.97
2018-01-15T22:15:02.147Z,12.33
2018-01-15T22:17:30.458Z,13.90
2018-01-15T22:19:58.771Z,12.10
2018-01-15T22:22:27.078Z,12.07
2018-01-15T22:24:55.361Z,13.93
2018-01-15T22:27:23.643Z,14.30
2018-01-15T22:29:52.380Z,12.40
2018-01-15T22:32:21.094Z,12.87
2018-01-15T22:34:49.446Z,13.23
2018-01-15T22:37:18.184Z,13.57
2018-01-15T22:39:46.786Z,14.50
2018-01-15T22:42:15.117Z,12.23
2018-01-15T22:44:43.394Z,12.60
2018-01-15T22:47:11.666Z,12.70
2018-01-15T22:49:39.970Z,12.17
2018-01-15T22:52:08.258Z,12.43
2018-01-15T22:54:36.967Z,15.53
2018-01-15T22:57:05.261Z,11.53
2018-01-15T22:59:33.926Z,12.80
2018-01-15T23:02:02.814Z,14.10
2018-01-15T23:04:31.278Z,13.03
2018-01-15T23:06:59.586Z,12.80
2018-01-15T23:09:28.263Z,12.27
2018-01-15T23:11:57.592Z,10.70
2018-01-15T23:14:26.135Z,14.10
2018-01-15T23:16:54.436Z,12.77
2018-01-15T23:19:23.178Z,12.27
2018-01-15T23:21:51.479Z,13.10
2018-01-15T23:24:20.186Z,14.03
2018-01-15T23:26:48.913Z,11.83
2018-01-15T23:29:17.432Z,12.30
2018-01-15T23:31:45.749Z,13.57
2018-01-15T23:34:14.147Z,11.53
2018-01-15T23:36:42.444Z,12.07
2018-01-15T23:39:10.770Z,13.00
2018-01-15T23:41:39.442Z,14.50
2018-01-15T23:44:08.502Z,11.90
2018-01-15T23:46:36.838Z,11.10
2018-01-15T23:49:05.118Z,11.27
2018-01-15T23:51:33.508Z,13.60
2018-01-15T23:54:01.837Z,12.90
2018-01-15T23:56:30.173Z,11.37
2018-01-15T23:58:58.448Z,12.90
